Terminal Aerodrome Forecast
Issued by NWS Albany, NY

Home | Current Version | Previous Version | Text Only | Print | Product List | Glossary On
Versions: 1 2 3 4 5 6 7 8 9 10 11 12 13 14 15 16 17 18 19 20 21 22 23 24 25
000
FTUS41 KALY 262123 AAB
TAFPOU
TAF AMD
KPOU 262123Z 2621/2718 VRB03KT 3SM -RA BR BKN008 OVC015
      TEMPO 2621/2624 1 1/2SM RA BR BKN004 OVC008
     FM270200 36005KT 3SM -RA BR SCT004 OVC008
     FM270600 32005KT P6SM VCSH SCT008 OVC020
     FM270900 33006KT P6SM VCSH SCT020 OVC040
     FM271400 34007KT P6SM BKN040=

USA.gov is the U.S. government's official web portal to all federal, state and local government web resources and services.